• Join FlightAware (Why Join?)
  • Login
  • US Flag 
05:03AM EDT


 

Airport Tracker/Info


-or-


 

Live Flight TrackerFlight Track Log ✈ DAL6048 ✈ 26-Apr-2013 ✈ KMHT - KLGA

Flight Track Log - Related Links

Times and Time Zones

All times are in EDT time to prevent confusion due to time zone crossing. See the DAL6048 flight status page for this flight to view local times or setup timezone preferences in your user account.

Time Position Orientation Groundspeed Altitude Reporting Facility
EDT Latitude Longitude Course Direction KTS MPH feet Rate Location/Type
09:14AM 42.9500 -71.4167 228° Southwest 150 173 900  Level KA90
09:15AM 43.0042 -71.4011 12° North 206 237 3,600 2,160 Climbing Boston Center
09:16AM 43.0442 -71.4542 316° Northwest 188 216 5,700 2,340 Climbing Boston Center
09:17AM 42.8073 -71.5840 236° Southwest  Level Estimated
09:17AM 43.0742 -71.5447 294° West 237 273 8,300  Level Boston Center
09:18AM 42.7654 -71.6332 228° Southwest  Level Estimated
09:18AM 43.0792 -71.6386 274° West 250 288 10,800  Level Boston Center
09:19AM 42.7235 -71.6824 228° Southwest  Level Estimated
09:19AM 43.0736 -71.7381 266° West 260 299 13,600  Level Boston Center
09:20AM 43.0678 -71.8347 265° West 260 299 15,700 1,200 Climbing Boston Center
09:21AM 43.0119 -71.9119 225° Southwest 267 307 16,100 180 Climbing Boston Center
09:22AM 42.9478 -72.0033 226° Southwest 315 362 16,100  Level Boston Center
09:23AM 42.8833 -72.1000 228° Southwest 352 405 16,100 -60 Level Boston Center
09:24AM 42.8128 -72.1994 226° Southwest 359 413 16,000 -120 Descending Boston Center
09:25AM 42.7547 -72.2958 231° Southwest 357 411 15,900 -60 Descending Boston Center
09:26AM 42.6900 -72.3950 228° Southwest 352 405 15,900  Level Boston Center
09:27AM 42.6172 -72.4964 226° Southwest 352 405 15,900  Level Boston Center
09:28AM 42.5442 -72.5894 223° Southwest 357 411 15,900  Level Boston Center
09:29AM 42.4731 -72.6878 226° Southwest 362 417 16,000 -60 Climbing Boston Center
09:30AM 42.4083 -72.7831 227° Southwest 356 410 15,800 -660 Descending Boston Center
09:31AM 42.3392 -72.8306 207° Southwest 325 374 14,700 -900 Descending Boston Center
09:32AM 42.2664 -72.7794 153° Southeast 259 298 14,000 -360 Descending Boston Center
09:33AM 42.1894 -72.7372 158° South 297 342 14,000  Level Boston Center
09:34AM 42.1042 -72.7114 167° South 303 349 14,000 -60 Level Boston Center
09:35AM 42.0103 -72.7139 181° South 326 375 13,900 -60 Descending Boston Center
09:36AM 41.9683 -72.8253 243° Southwest 283 326 13,900  Level Boston Center
09:37AM 41.9158 -72.9339 237° Southwest 302 348 13,900  Level Boston Center
09:38AM 41.8694 -73.0339 238° Southwest 342 394 14,000  Climbing Boston Center
09:39AM 41.8106 -73.1503 236° Southwest 351 404 14,000  Level Boston Center
09:40AM 41.7578 -73.2306 229° Southwest 339 390 14,000 -60 Level Boston Center
09:41AM 41.6989 -73.3186 228° Southwest 309 356 13,900 -420 Descending Boston Center
09:42AM 41.6483 -73.3847 224° Southwest 286 329 13,200 -840 Descending Boston Center
09:43AM 41.5892 -73.4642 225° Southwest 286 329 12,300 -840 Descending Boston Center
09:45AM 41.4667 -73.6333 226° Southwest 270 311 10,500 -840 Descending New York TRACON
09:46AM 41.4167 -73.7000 225° Southwest 265 305 9,700 -900 Descending New York TRACON
09:47AM 41.3667 -73.7667 225° Southwest 255 293 8,800 -1,260 Descending New York TRACON
09:48AM 41.3000 -73.7500 169° South 267 307 7,200 -1,800 Descending New York TRACON
09:49AM 41.2333 -73.7000 151° Southeast 268 308 5,300 -1,560 Descending New York TRACON
09:50AM 41.1667 -73.6667 159° South 260 299 4,100 -660 Descending New York TRACON
09:52AM 41.1000 -73.6333 159° South 265 305 4,000 -60 Descending New York TRACON
09:52AM 41.0333 -73.6167 169° South 261 300 4,000  Level New York TRACON
09:54AM 40.9500 -73.6167 180° South 253 291 4,000  Level New York TRACON
09:55AM 40.8833 -73.6500 201° Southwest 256 295 4,000  Level New York TRACON
09:56AM 40.8167 -73.6833 201° Southwest 258 297 4,000  Level New York TRACON
09:56AM 40.7833 -73.7500 237° Southwest 253 291 4,000  Level New York TRACON
09:57AM 40.7833 -73.8333 270° West 210 242 4,000  Level New York TRACON
09:59AM 40.7667 -73.8667 180° South  Level FlightAware Approximate
09:59AM 40.7833 -73.9000 180° South 173 199 4,000  Level New York TRACON
09:59AM 40.7667 -73.9500 246° West 182 209 4,000  Level New York TRACON
10:00AM 40.7500 -74.0167 252° West 195 224 4,000  Level New York TRACON
10:01AM 40.7000 -74.0500 207° Southwest 185 213 4,000  Level New York TRACON